createdAt,value
2022-10-05T00:00:23.289Z,28.10
2022-10-05T00:03:27.441Z,27.30
2022-10-05T00:06:30.312Z,29.43
2022-10-05T00:09:33.824Z,23.35
2022-10-05T00:12:35.733Z,23.45
2022-10-05T00:15:37.682Z,26.27
2022-10-05T00:18:39.759Z,24.25
2022-10-05T00:21:41.685Z,25.83
2022-10-05T00:24:44.375Z,23.17
2022-10-05T00:27:52.106Z,24.77
2022-10-05T00:30:55.549Z,22.73
2022-10-05T00:33:57.600Z,24.20
2022-10-05T00:36:59.593Z,24.67
2022-10-05T00:40:02.140Z,24.73
2022-10-05T00:43:18.663Z,25.42
2022-10-05T00:46:20.583Z,26.50
2022-10-05T00:49:31.355Z,23.00
2022-10-05T00:52:51.710Z,25.88
2022-10-05T00:55:57.698Z,21.35
2022-10-05T00:59:18.522Z,21.73
2022-10-05T01:02:23.284Z,25.85
2022-10-05T01:05:37.396Z,22.30
2022-10-05T01:08:57.447Z,21.77
2022-10-05T01:12:25.764Z,26.80
2022-10-05T01:15:45.474Z,25.67
2022-10-05T01:18:53.647Z,26.73
2022-10-05T01:21:59.248Z,25.83
2022-10-05T01:25:01.255Z,23.00
2022-10-05T01:28:06.026Z,35.92
2022-10-05T01:31:16.970Z,31.13
2022-10-05T01:34:37.557Z,25.52
2022-10-05T01:37:39.908Z,29.63
2022-10-05T01:40:44.565Z,26.23
2022-10-05T01:43:53.081Z,30.98
2022-10-05T01:47:00.503Z,23.60
2022-10-05T01:50:04.637Z,24.63
2022-10-05T01:53:26.376Z,22.20
2022-10-05T01:56:55.029Z,25.17
2022-10-05T01:59:57.636Z,26.00
2022-10-05T02:03:02.584Z,26.13
2022-10-05T02:06:07.744Z,25.33
2022-10-05T02:09:19.377Z,24.00
2022-10-05T02:12:23.658Z,28.10
2022-10-05T02:15:46.012Z,27.33
2022-10-05T02:18:56.811Z,23.45
2022-10-05T02:22:02.269Z,26.47
2022-10-05T02:25:08.536Z,32.08
2022-10-05T02:28:22.789Z,28.30
2022-10-05T02:31:45.979Z,31.60
2022-10-05T02:34:48.168Z,27.65
2022-10-05T02:38:19.330Z,28.15
2022-10-05T02:41:29.620Z,29.88
2022-10-05T02:44:53.398Z,27.57
2022-10-05T02:47:55.341Z,27.70
2022-10-05T02:51:00.644Z,31.77
2022-10-05T02:54:05.645Z,26.57
2022-10-05T02:57:24.265Z,29.73
2022-10-05T03:00:30.761Z,31.85
2022-10-05T03:03:32.810Z,28.88
2022-10-05T03:07:01.226Z,27.65
2022-10-05T03:10:08.323Z,29.45
2022-10-05T03:13:22.839Z,31.13
2022-10-05T03:16:34.367Z,27.97
2022-10-05T03:19:45.820Z,30.90
2022-10-05T03:22:48.649Z,27.63
2022-10-05T03:26:06.179Z,29.00
2022-10-05T03:29:08.359Z,26.55
2022-10-05T03:32:19.516Z,26.92
2022-10-05T03:35:41.793Z,29.40
2022-10-05T03:38:46.571Z,25.95
2022-10-05T03:41:54.915Z,26.42
2022-10-05T03:45:02.954Z,27.83
2022-10-05T03:48:15.611Z,27.37
2022-10-05T03:51:37.864Z,27.02
2022-10-05T03:54:48.541Z,29.42
2022-10-05T03:57:52.534Z,30.33
2022-10-05T04:00:58.231Z,29.42
2022-10-05T04:04:01.610Z,26.35
2022-10-05T04:07:05.226Z,28.60
2022-10-05T04:10:12.227Z,27.27
2022-10-05T04:13:24.309Z,30.73
2022-10-05T04:16:34.375Z,31.02
2022-10-05T04:19:36.325Z,34.53
2022-10-05T04:22:40.600Z,30.88
2022-10-05T04:25:45.493Z,30.40
2022-10-05T04:29:14.404Z,31.30
2022-10-05T04:32:49.231Z,29.20
2022-10-05T04:36:13.727Z,24.30
2022-10-05T04:39:36.007Z,28.27
2022-10-05T04:42:42.956Z,33.92
2022-10-05T04:45:48.462Z,32.92
2022-10-05T04:49:09.353Z,26.55
2022-10-05T04:52:17.491Z,28.60
2022-10-05T04:55:31.656Z,31.58
2022-10-05T04:58:43.049Z,33.25
2022-10-05T05:02:11.718Z,27.43
2022-10-05T05:05:17.316Z,30.13
2022-10-05T05:08:29.990Z,28.70
2022-10-05T05:11:44.478Z,32.05
2022-10-05T05:15:01.762Z,26.48
2022-10-05T05:18:26.067Z,28.02
2022-10-05T05:21:28.757Z,29.02
2022-10-05T05:24:33.637Z,30.33
2022-10-05T05:27:46.060Z,29.33
2022-10-05T05:30:53.761Z,25.05
2022-10-05T05:34:02.048Z,29.87
2022-10-05T05:37:23.218Z,34.25
2022-10-05T05:40:28.163Z,29.13
2022-10-05T05:43:36.814Z,33.85
2022-10-05T05:47:02.322Z,26.55
2022-10-05T05:50:13.229Z,35.15
2022-10-05T05:53:15.451Z,35.28
2022-10-05T05:56:20.779Z,32.70
2022-10-05T05:59:55.663Z,27.83
2022-10-05T06:03:04.057Z,46.60
2022-10-05T06:06:10.020Z,57.13
2022-10-05T06:09:27.112Z,49.50
2022-10-05T06:12:47.378Z,39.15
2022-10-05T06:15:56.108Z,40.97
2022-10-05T06:19:02.686Z,31.58
2022-10-05T06:22:14.981Z,26.23
2022-10-05T06:25:20.636Z,20.80
2022-10-05T06:28:24.760Z,23.27
2022-10-05T06:31:39.379Z,26.38
2022-10-05T06:34:47.753Z,28.75
2022-10-05T06:38:02.042Z,19.02
2022-10-05T06:41:04.415Z,19.00
2022-10-05T06:44:06.574Z,21.95
2022-10-05T06:47:29.015Z,16.85
2022-10-05T06:50:48.682Z,17.50
2022-10-05T06:54:35.364Z,20.67
2022-10-05T06:57:46.753Z,17.75
2022-10-05T07:01:16.105Z,15.80
2022-10-05T07:04:37.173Z,24.83
2022-10-05T07:07:51.867Z,22.57
2022-10-05T07:11:22.960Z,19.27
2022-10-05T07:14:25.218Z,22.40
2022-10-05T07:17:39.270Z,23.48
2022-10-05T07:20:48.918Z,23.17
2022-10-05T07:23:53.179Z,17.37
2022-10-05T07:27:14.144Z,16.33
2022-10-05T07:30:16.420Z,17.10
2022-10-05T07:33:25.574Z,13.35
2022-10-05T07:36:55.224Z,15.00
2022-10-05T07:40:01.580Z,18.70
2022-10-05T07:43:16.753Z,23.13
2022-10-05T07:46:42.623Z,18.35
2022-10-05T07:50:04.139Z,19.65
2022-10-05T07:53:15.224Z,14.47
2022-10-05T07:56:23.703Z,14.37
2022-10-05T07:59:28.733Z,17.13
2022-10-05T08:02:44.588Z,12.30
2022-10-05T08:05:47.313Z,11.23
2022-10-05T08:08:54.502Z,10.03
2022-10-05T08:12:07.490Z,12.13
2022-10-05T08:15:14.964Z,11.15
2022-10-05T08:18:20.800Z,15.70
2022-10-05T08:21:33.071Z,9.90
2022-10-05T08:24:37.979Z,12.70
2022-10-05T08:27:43.686Z,12.97
2022-10-05T08:30:54.506Z,10.55
2022-10-05T08:34:05.539Z,13.45
2022-10-05T08:37:17.966Z,7.30
2022-10-05T08:40:29.609Z,11.23
2022-10-05T08:43:49.855Z,10.10
2022-10-05T08:47:02.535Z,11.85
2022-10-05T08:50:23.150Z,11.90
2022-10-05T08:53:37.212Z,10.27
2022-10-05T08:56:43.360Z,9.53
2022-10-05T09:00:03.925Z,12.20
2022-10-05T09:03:17.940Z,9.80
2022-10-05T09:06:35.435Z,9.85
2022-10-05T09:10:00.800Z,9.60
2022-10-05T09:13:29.833Z,10.37
2022-10-05T09:16:41.143Z,8.33
2022-10-05T09:19:55.484Z,8.45
2022-10-05T09:23:04.354Z,8.40
2022-10-05T09:26:09.351Z,10.88
2022-10-05T09:29:30.055Z,9.93
2022-10-05T09:32:34.887Z,9.80
2022-10-05T09:35:37.036Z,8.90
2022-10-05T09:38:50.376Z,9.77
2022-10-05T09:42:07.802Z,10.55
2022-10-05T09:45:41.580Z,8.60
2022-10-05T09:48:43.514Z,8.13
2022-10-05T09:52:00.641Z,12.40
2022-10-05T09:55:10.761Z,9.48
2022-10-05T09:58:15.180Z,8.05
2022-10-05T10:01:35.422Z,8.57
2022-10-05T10:04:37.497Z,5.70
2022-10-05T10:07:52.123Z,5.28
2022-10-05T10:11:01.751Z,6.60
2022-10-05T10:14:13.137Z,6.55
2022-10-05T10:17:18.021Z,5.57
2022-10-05T10:20:31.136Z,7.03
2022-10-05T10:23:51.755Z,6.80
2022-10-05T10:27:13.347Z,7.70
2022-10-05T10:30:27.778Z,4.90
2022-10-05T10:33:39.475Z,7.93
2022-10-05T10:37:00.587Z,7.40
2022-10-05T10:40:26.122Z,5.82
2022-10-05T10:43:47.227Z,9.52
2022-10-05T10:47:08.008Z,8.60
2022-10-05T10:50:25.807Z,5.73
2022-10-05T10:53:46.824Z,6.90
2022-10-05T10:56:54.143Z,7.30
2022-10-05T11:00:08.236Z,7.50
2022-10-05T11:03:13.178Z,8.45
2022-10-05T11:06:17.120Z,7.90
2022-10-05T11:09:22.212Z,11.37
2022-10-05T11:12:44.754Z,5.63
2022-10-05T11:15:49.603Z,10.43
2022-10-05T11:19:02.339Z,6.47
2022-10-05T11:22:10.367Z,7.07
2022-10-05T11:25:18.426Z,7.57
2022-10-05T11:28:36.234Z,6.82
2022-10-05T11:31:41.511Z,5.15
2022-10-05T11:34:56.822Z,7.40
2022-10-05T11:38:11.115Z,5.90
2022-10-05T11:41:22.580Z,6.07
2022-10-05T11:44:43.083Z,5.47
2022-10-05T11:48:10.727Z,4.55
2022-10-05T11:51:28.928Z,4.95
2022-10-05T11:55:05.915Z,4.37
2022-10-05T11:58:01.706Z,3.57
2022-10-05T12:01:18.216Z,5.80
2022-10-05T12:04:29.022Z,5.50
2022-10-05T12:07:51.293Z,4.95
2022-10-05T12:11:02.452Z,6.90
2022-10-05T12:14:21.536Z,3.50
2022-10-05T12:17:31.029Z,6.45
2022-10-05T12:20:33.111Z,5.57
2022-10-05T12:23:37.686Z,2.78
2022-10-05T12:27:00.103Z,8.90
2022-10-05T12:30:02.322Z,5.17
2022-10-05T12:33:06.987Z,4.45
2022-10-05T12:36:14.424Z,5.60
2022-10-05T12:39:18.982Z,6.07
2022-10-05T12:42:23.743Z,5.00
2022-10-05T12:45:31.529Z,4.83
2022-10-05T12:48:36.570Z,8.32
2022-10-05T12:51:56.526Z,5.45
2022-10-05T12:54:58.476Z,4.53
2022-10-05T12:58:09.311Z,6.03
2022-10-05T13:01:23.624Z,5.93
2022-10-05T13:04:28.977Z,4.70
2022-10-05T13:07:34.191Z,5.80
2022-10-05T13:10:39.487Z,8.43
2022-10-05T13:13:41.435Z,5.10
2022-10-05T13:16:55.393Z,3.57
2022-10-05T13:19:58.596Z,3.47
2022-10-05T13:23:09.408Z,3.45
2022-10-05T13:26:14.345Z,3.15
2022-10-05T13:29:19.294Z,5.23
2022-10-05T13:32:21.232Z,3.47
2022-10-05T13:35:41.884Z,5.32
2022-10-05T13:38:52.768Z,5.90
2022-10-05T13:41:55.172Z,4.95
2022-10-05T13:45:00.412Z,5.30
2022-10-05T13:48:11.354Z,5.10
2022-10-05T13:51:34.914Z,4.93
2022-10-05T13:54:42.774Z,5.30
2022-10-05T13:57:51.636Z,3.50
2022-10-05T14:00:55.110Z,6.07
2022-10-05T14:04:24.614Z,3.80
2022-10-05T14:07:34.185Z,4.95
2022-10-05T14:10:36.609Z,6.03
2022-10-05T14:13:46.446Z,7.28
2022-10-05T14:16:51.034Z,5.30
2022-10-05T14:19:56.648Z,6.90
2022-10-05T14:23:02.899Z,5.25
2022-10-05T14:26:17.243Z,4.95
2022-10-05T14:29:23.556Z,4.60
2022-10-05T14:32:27.156Z,4.80
2022-10-05T14:35:51.492Z,6.87
2022-10-05T14:38:53.440Z,5.40
2022-10-05T14:41:55.659Z,5.50
2022-10-05T14:45:11.449Z,3.63
2022-10-05T14:48:13.417Z,4.53
2022-10-05T14:51:28.406Z,3.83
2022-10-05T14:54:41.213Z,9.02
2022-10-05T14:58:03.412Z,3.70
2022-10-05T15:01:14.717Z,4.97
2022-10-05T15:04:24.825Z,5.23
2022-10-05T15:07:26.716Z,5.10
2022-10-05T15:10:42.433Z,6.93
2022-10-05T15:13:45.266Z,5.93
2022-10-05T15:16:50.097Z,5.70
2022-10-05T15:20:01.812Z,7.03
2022-10-05T15:23:23.752Z,6.63
2022-10-05T15:26:46.256Z,8.75
2022-10-05T15:29:51.999Z,11.65
2022-10-05T15:33:15.024Z,8.35
2022-10-05T15:36:19.832Z,7.60
2022-10-05T15:39:27.053Z,14.83
2022-10-05T15:42:39.441Z,16.10
2022-10-05T15:45:54.046Z,14.80
2022-10-05T15:49:08.552Z,14.82
2022-10-05T15:52:25.547Z,27.80
2022-10-05T15:55:35.395Z,29.83
2022-10-05T15:58:40.228Z,28.85
2022-10-05T16:01:49.014Z,18.27
2022-10-05T16:05:04.468Z,11.75
2022-10-05T16:08:31.008Z,14.83
2022-10-05T16:11:56.494Z,11.27
2022-10-05T16:15:01.493Z,9.52
2022-10-05T16:18:24.136Z,12.85
2022-10-05T16:21:45.957Z,10.90
2022-10-05T16:24:53.687Z,13.87
2022-10-05T16:28:06.273Z,29.10
2022-10-05T16:31:18.708Z,31.65
2022-10-05T16:34:39.543Z,34.88
2022-10-05T16:37:41.515Z,52.88
2022-10-05T16:41:01.066Z,92.13
2022-10-05T16:44:03.792Z,82.77
2022-10-05T16:47:28.233Z,105.30
2022-10-05T16:50:37.036Z,96.60
2022-10-05T16:53:44.347Z,68.13
2022-10-05T16:56:54.888Z,64.57
2022-10-05T17:00:03.701Z,56.03
2022-10-05T17:03:17.704Z,69.07
2022-10-05T17:06:38.208Z,67.78
2022-10-05T17:09:40.218Z,57.55
2022-10-05T17:12:48.035Z,58.10
2022-10-05T17:15:55.741Z,66.90
2022-10-05T17:19:12.831Z,77.45
2022-10-05T17:22:14.745Z,72.40
2022-10-05T17:25:19.350Z,97.22
2022-10-05T17:28:39.082Z,116.63
2022-10-05T17:32:00.193Z,108.67
2022-10-05T17:35:15.930Z,117.70
2022-10-05T17:38:24.002Z,95.40
2022-10-05T17:41:29.514Z,81.78
2022-10-05T17:44:31.463Z,69.50
2022-10-05T17:47:51.940Z,70.40
2022-10-05T17:51:12.329Z,58.28
2022-10-05T17:54:37.096Z,59.05
2022-10-05T17:57:39.662Z,51.58
2022-10-05T18:01:01.539Z,50.67
2022-10-05T18:04:09.275Z,49.20
2022-10-05T18:07:23.987Z,45.60
2022-10-05T18:10:29.775Z,49.65
2022-10-05T18:13:35.572Z,51.22
2022-10-05T18:16:56.839Z,53.73
2022-10-05T18:20:13.264Z,61.07
2022-10-05T18:23:36.429Z,90.82
2022-10-05T18:26:52.267Z,41.03
2022-10-05T18:30:06.334Z,32.78
2022-10-05T18:33:08.250Z,34.23
2022-10-05T18:36:17.097Z,33.33
2022-10-05T18:39:31.011Z,30.95
2022-10-05T18:42:48.746Z,27.35
2022-10-05T18:50:29.241Z,27.63
2022-10-05T18:53:46.523Z,22.15
2022-10-05T18:56:52.047Z,21.98
2022-10-05T19:00:12.535Z,24.00
2022-10-05T19:03:14.790Z,19.73
2022-10-05T19:06:24.640Z,18.13
2022-10-05T19:09:26.571Z,18.30
2022-10-05T19:12:29.364Z,17.42
2022-10-05T19:15:31.312Z,17.10
2022-10-05T19:18:41.456Z,14.47
2022-10-05T19:21:43.447Z,18.33
2022-10-05T19:25:08.284Z,18.33
2022-10-05T19:28:17.526Z,17.45
2022-10-05T19:31:34.478Z,17.00
2022-10-05T19:34:42.391Z,17.20
2022-10-05T19:37:53.070Z,16.85
2022-10-05T19:41:00.776Z,21.27
2022-10-05T19:44:38.520Z,21.77
2022-10-05T19:47:46.282Z,19.53
2022-10-05T19:50:58.206Z,16.77
2022-10-05T19:54:14.732Z,20.20
2022-10-05T19:57:17.948Z,15.85
2022-10-05T20:00:21.752Z,18.00
2022-10-05T20:03:29.247Z,21.23
2022-10-05T20:06:31.186Z,14.60
2022-10-05T20:09:51.983Z,19.02
2022-10-05T20:12:55.920Z,19.60
2022-10-05T20:16:26.505Z,16.45
2022-10-05T20:19:47.033Z,19.75
2022-10-05T20:22:49.030Z,18.88
2022-10-05T20:26:10.026Z,15.47
2022-10-05T20:29:12.003Z,14.45
2022-10-05T20:32:15.246Z,13.32
2022-10-05T20:35:18.182Z,17.50
2022-10-05T20:38:20.415Z,21.90
2022-10-05T20:41:22.346Z,15.95
2022-10-05T20:44:24.300Z,12.70
2022-10-05T20:47:26.525Z,20.60
2022-10-05T20:50:28.482Z,15.17
2022-10-05T20:53:30.403Z,27.08
2022-10-05T20:56:32.685Z,21.13
2022-10-05T20:59:35.046Z,19.45
2022-10-05T21:02:38.094Z,36.70
2022-10-05T21:05:40.023Z,39.47
2022-10-05T21:08:41.951Z,21.48
2022-10-05T21:11:44.651Z,19.80
2022-10-05T21:14:47.468Z,23.77
2022-10-05T21:17:50.798Z,47.78
2022-10-05T21:20:52.755Z,21.08
2022-10-05T21:23:54.916Z,23.25
2022-10-05T21:26:57.613Z,18.40
2022-10-05T21:29:59.642Z,19.73
2022-10-05T21:33:01.638Z,22.73
2022-10-05T21:36:03.851Z,21.98
2022-10-05T21:39:05.851Z,20.53
2022-10-05T21:42:07.802Z,14.93
2022-10-05T21:45:10.153Z,17.52
2022-10-05T21:48:13.445Z,14.45
2022-10-05T21:51:16.944Z,18.07
2022-10-05T21:54:20.453Z,18.13
2022-10-05T21:57:22.456Z,17.95
2022-10-05T22:00:24.384Z,16.53
2022-10-05T22:03:26.364Z,22.55
2022-10-05T22:06:28.419Z,15.18
2022-10-05T22:09:30.344Z,14.25
2022-10-05T22:12:32.696Z,13.53
2022-10-05T22:15:34.624Z,17.47
2022-10-05T22:18:36.567Z,19.23
2022-10-05T22:21:41.680Z,20.08
2022-10-05T22:24:43.796Z,21.60
2022-10-05T22:27:45.735Z,14.50
2022-10-05T22:30:47.745Z,13.68
2022-10-05T22:33:49.828Z,14.93
2022-10-05T22:36:51.859Z,15.60
2022-10-05T22:39:55.257Z,14.35
2022-10-05T22:42:57.244Z,19.63
2022-10-05T22:45:59.249Z,15.82
2022-10-05T22:49:01.372Z,17.70
2022-10-05T22:52:03.708Z,18.27
2022-10-05T22:55:05.856Z,20.52
2022-10-05T22:58:07.834Z,16.83
2022-10-05T23:01:13.945Z,16.13
2022-10-05T23:04:15.986Z,15.38
2022-10-05T23:07:18.105Z,14.40
2022-10-05T23:10:20.092Z,16.38
2022-10-05T23:13:22.542Z,17.13
2022-10-05T23:16:27.661Z,15.10
2022-10-05T23:19:29.773Z,18.30
2022-10-05T23:22:34.868Z,17.13
2022-10-05T23:25:36.917Z,16.63
2022-10-05T23:28:40.414Z,16.80
2022-10-05T23:31:42.629Z,19.08
2022-10-05T23:34:44.545Z,18.52
2022-10-05T23:37:46.560Z,16.87
2022-10-05T23:40:48.548Z,18.33
2022-10-05T23:43:50.551Z,20.35
2022-10-05T23:46:52.540Z,19.48
2022-10-05T23:49:55.455Z,18.70
2022-10-05T23:52:57.371Z,22.20
2022-10-05T23:55:59.365Z,20.48
2022-10-05T23:59:01.355Z,21.10
